createdAt,value
2023-05-23T00:00:07.674Z,81.2545
2023-05-23T00:01:15.562Z,81.3827
2023-05-23T00:02:23.694Z,81.4641
2023-05-23T00:03:31.715Z,81.6758
2023-05-23T00:04:39.889Z,80.8782
2023-05-23T00:05:47.911Z,80.9148
2023-05-23T00:06:56.075Z,80.6002
2023-05-23T00:08:03.752Z,80.4457
2023-05-23T00:09:11.996Z,80.5668
2023-05-23T00:10:19.874Z,80.9815
2023-05-23T00:11:28.308Z,79.9850
2023-05-23T00:12:36.148Z,79.8881
2023-05-23T00:13:44.212Z,79.9319
2023-05-23T00:14:52.235Z,82.3006
2023-05-23T00:16:00.478Z,80.1829
2023-05-23T00:17:08.504Z,79.6541
2023-05-23T00:18:16.465Z,80.4135
2023-05-23T00:19:24.414Z,80.3276
2023-05-23T00:20:32.550Z,80.5212
2023-05-23T00:21:40.714Z,80.6571
2023-05-23T00:22:48.729Z,80.8046
2023-05-23T00:23:56.741Z,80.8216
2023-05-23T00:25:04.920Z,80.9673
2023-05-23T00:26:12.888Z,81.1358
2023-05-23T00:27:20.909Z,82.1135
2023-05-23T00:28:29.020Z,82.8034
2023-05-23T00:29:37.109Z,83.2378
2023-05-23T00:30:45.065Z,82.9205
2023-05-23T00:31:53.311Z,81.7132
2023-05-23T00:33:01.506Z,81.0837
2023-05-23T00:34:09.249Z,80.8373
2023-05-23T00:35:17.398Z,81.0858
2023-05-23T00:36:25.392Z,81.9440
2023-05-23T00:37:33.610Z,81.9076
2023-05-23T00:38:41.731Z,81.7460
2023-05-23T00:39:49.675Z,83.0623
2023-05-23T00:40:57.735Z,83.8202
2023-05-23T00:42:05.727Z,84.2556
2023-05-23T00:43:14.003Z,84.5251
2023-05-23T00:44:22.560Z,84.1606
2023-05-23T00:45:29.993Z,83.9111
2023-05-23T00:46:38.339Z,84.4422
2023-05-23T00:47:46.151Z,84.4843
2023-05-23T00:48:54.192Z,84.1110
2023-05-23T00:50:02.241Z,84.7311
2023-05-23T00:51:10.445Z,85.0454
2023-05-23T00:52:18.410Z,85.1951
2023-05-23T00:53:26.674Z,85.0443
2023-05-23T00:54:34.460Z,85.0679
2023-05-23T00:55:42.689Z,85.0573
2023-05-23T00:56:50.641Z,85.0013
2023-05-23T00:57:58.692Z,85.3885
2023-05-23T00:59:06.623Z,85.3060
2023-05-23T01:00:14.775Z,85.0374
2023-05-23T01:01:23.044Z,84.9490
2023-05-23T01:02:30.977Z,85.6627
2023-05-23T01:03:39.153Z,85.5610
2023-05-23T01:04:46.882Z,85.4807
2023-05-23T01:05:55.187Z,85.3436
2023-05-23T01:07:03.216Z,85.7486
2023-05-23T01:08:11.243Z,85.8038
2023-05-23T01:09:19.300Z,86.5411
2023-05-23T01:10:27.451Z,85.7052
2023-05-23T01:11:35.438Z,86.5770
2023-05-23T01:12:43.486Z,87.0973
2023-05-23T01:13:51.503Z,86.9718
2023-05-23T01:14:59.567Z,86.6899
2023-05-23T01:16:07.655Z,86.4572
2023-05-23T01:17:15.649Z,86.6516
2023-05-23T01:18:23.766Z,86.4235
2023-05-23T01:19:31.683Z,86.4041
2023-05-23T01:20:39.855Z,86.9863
2023-05-23T01:21:47.936Z,87.1928
2023-05-23T01:22:55.895Z,87.4961
2023-05-23T01:24:04.051Z,87.3388
2023-05-23T01:25:12.057Z,87.3224
2023-05-23T01:26:20.323Z,87.4142
2023-05-23T01:27:28.222Z,87.4368
2023-05-23T01:28:36.362Z,87.7950
2023-05-23T01:29:44.391Z,87.9579
2023-05-23T01:30:52.442Z,88.0686
2023-05-23T01:32:00.497Z,88.2718
2023-05-23T01:33:08.592Z,88.2583
2023-05-23T01:34:16.478Z,88.5700
2023-05-23T01:35:24.688Z,88.3790
2023-05-23T01:36:32.715Z,88.0026
2023-05-23T01:37:40.761Z,87.5677
2023-05-23T01:38:49.036Z,87.9124
2023-05-23T01:39:56.774Z,88.1603
2023-05-23T01:41:05.046Z,86.8675
2023-05-23T01:42:13.072Z,87.0116
2023-05-23T01:43:21.051Z,87.6978
2023-05-23T01:44:29.268Z,87.4877
2023-05-23T01:45:37.207Z,87.6671
2023-05-23T01:46:45.240Z,88.0412
2023-05-23T01:47:53.379Z,88.4867
2023-05-23T01:49:01.522Z,88.4504
2023-05-23T01:50:09.392Z,88.6100
2023-05-23T01:51:17.354Z,88.7505
2023-05-23T01:52:25.534Z,88.8667
2023-05-23T01:53:33.603Z,89.1087
2023-05-23T01:54:41.941Z,89.0674
2023-05-23T01:55:49.724Z,89.0065
2023-05-23T01:56:57.699Z,89.2819
2023-05-23T01:58:05.798Z,89.2663
2023-05-23T01:59:13.864Z,89.4151
2023-05-23T02:00:22.005Z,89.6998
2023-05-23T02:01:30.048Z,89.8534
2023-05-23T02:02:38.230Z,89.7536
2023-05-23T02:03:46.136Z,89.6846
2023-05-23T02:04:54.248Z,89.7308
2023-05-23T02:06:02.310Z,89.8848
2023-05-23T02:07:10.287Z,90.1322
2023-05-23T02:08:18.355Z,90.2621
2023-05-23T02:09:26.523Z,90.1755
2023-05-23T02:10:34.571Z,90.1167
2023-05-23T02:11:42.546Z,90.0970
2023-05-23T02:12:50.714Z,89.9635
2023-05-23T02:13:58.654Z,90.1689
2023-05-23T02:15:06.712Z,88.7461
2023-05-23T02:16:14.969Z,88.5146
2023-05-23T02:17:22.897Z,89.2928
2023-05-23T02:18:30.915Z,89.6049
2023-05-23T02:19:38.906Z,90.0195
2023-05-23T02:20:47.030Z,89.9182
2023-05-23T02:21:55.136Z,89.8266
2023-05-23T02:23:03.157Z,89.8623
2023-05-23T02:24:11.453Z,89.6769
2023-05-23T02:25:19.326Z,89.8132
2023-05-23T02:26:27.367Z,89.9621
2023-05-23T02:27:35.419Z,90.1472
2023-05-23T02:28:43.391Z,90.3068
2023-05-23T02:29:51.506Z,89.8541
2023-05-23T02:30:59.806Z,89.3815
2023-05-23T02:32:07.663Z,88.9407
2023-05-23T02:33:15.764Z,89.0583
2023-05-23T02:34:23.889Z,88.1590
2023-05-23T02:35:31.822Z,87.4986
2023-05-23T02:36:39.925Z,87.6758
2023-05-23T02:37:47.921Z,87.8719
2023-05-23T02:38:56.211Z,87.9900
2023-05-23T02:40:03.924Z,88.2291
2023-05-23T02:41:12.187Z,88.7782
2023-05-23T02:42:20.208Z,88.8398
2023-05-23T02:43:28.091Z,88.9965
2023-05-23T02:44:36.372Z,88.7578
2023-05-23T02:45:44.389Z,87.5346
2023-05-23T02:46:52.629Z,87.6406
2023-05-23T02:48:00.458Z,88.5840
2023-05-23T02:49:08.546Z,88.9700
2023-05-23T02:50:16.552Z,89.2173
2023-05-23T02:51:24.531Z,89.5899
2023-05-23T02:52:32.722Z,89.7187
2023-05-23T02:53:40.902Z,89.6965
2023-05-23T02:54:48.664Z,89.6459
2023-05-23T02:55:56.867Z,89.6871
2023-05-23T02:57:04.969Z,89.6381
2023-05-23T02:58:12.969Z,89.6041
2023-05-23T02:59:21.050Z,89.7085
2023-05-23T03:00:29.155Z,89.4131
2023-05-23T03:01:37.138Z,89.2644
2023-05-23T03:02:45.472Z,89.5622
2023-05-23T03:03:53.256Z,89.4947
2023-05-23T03:05:01.308Z,88.9400
2023-05-23T03:06:09.256Z,89.3966
2023-05-23T03:07:27.486Z,89.6515
2023-05-23T03:08:30.351Z,89.8587
2023-05-23T03:09:38.394Z,90.4807
2023-05-23T03:10:46.464Z,90.5657
2023-05-23T03:11:54.643Z,90.4032
2023-05-23T03:13:02.635Z,89.9631
2023-05-23T03:14:10.634Z,90.2367
2023-05-23T03:15:18.712Z,90.7402
2023-05-23T03:16:26.862Z,90.7338
2023-05-23T03:17:34.697Z,91.0193
2023-05-23T03:18:42.925Z,91.3275
2023-05-23T03:19:50.955Z,91.5353
2023-05-23T03:20:59.009Z,91.3856
2023-05-23T03:22:07.207Z,91.2376
2023-05-23T03:23:15.146Z,91.2732
2023-05-23T03:24:23.185Z,91.1961
2023-05-23T03:25:31.263Z,91.0794
2023-05-23T03:26:39.285Z,90.3485
2023-05-23T03:27:47.321Z,88.3117
2023-05-23T03:28:55.463Z,89.0453
2023-05-23T03:30:03.704Z,89.1052
2023-05-23T03:31:11.601Z,89.1176
2023-05-23T03:32:19.660Z,89.2426
2023-05-23T03:33:27.631Z,88.5365
2023-05-23T03:34:35.714Z,88.5665
2023-05-23T03:35:43.734Z,88.6863
2023-05-23T03:36:51.808Z,89.2480
2023-05-23T03:37:59.701Z,89.1542
2023-05-23T03:39:07.968Z,89.4043
2023-05-23T03:40:16.019Z,88.4296
2023-05-23T03:41:24.022Z,88.5132
2023-05-23T03:42:32.159Z,88.5676
2023-05-23T03:43:40.023Z,88.8073
2023-05-23T03:44:48.447Z,89.3908
2023-05-23T03:45:56.369Z,89.0203
2023-05-23T03:47:04.366Z,88.8148
2023-05-23T03:48:12.474Z,88.6371
2023-05-23T03:49:20.289Z,87.3493
2023-05-23T03:50:28.731Z,87.3868
2023-05-23T03:51:36.551Z,87.8889
2023-05-23T03:52:44.491Z,88.3271
2023-05-23T03:53:52.684Z,88.1947
2023-05-23T03:55:00.632Z,88.1801
2023-05-23T03:56:08.777Z,89.0441
2023-05-23T03:57:16.851Z,89.2461
2023-05-23T03:58:24.757Z,87.5734
2023-05-23T03:59:32.965Z,87.7763
2023-05-23T04:00:41.356Z,88.1780
2023-05-23T04:01:49.078Z,88.3419
2023-05-23T04:02:57.198Z,88.6139
2023-05-23T04:04:05.377Z,88.7938
2023-05-23T04:05:13.482Z,88.5342
2023-05-23T04:06:21.309Z,87.3127
2023-05-23T04:07:29.409Z,87.0559
2023-05-23T04:08:37.515Z,86.9817
2023-05-23T04:09:45.681Z,86.4681
2023-05-23T04:10:53.564Z,86.6375
2023-05-23T04:12:01.608Z,87.4990
2023-05-23T04:13:09.700Z,88.3245
2023-05-23T04:14:18.027Z,88.8055
2023-05-23T04:15:25.942Z,87.4164
2023-05-23T04:16:33.949Z,87.6453
2023-05-23T04:17:41.917Z,87.9771
2023-05-23T04:18:50.106Z,88.2829
2023-05-23T04:19:58.091Z,87.9779
2023-05-23T04:21:06.090Z,88.0102
2023-05-23T04:22:14.107Z,87.8658
2023-05-23T04:23:22.215Z,88.4781
2023-05-23T04:24:30.254Z,88.0186
2023-05-23T04:25:38.396Z,88.2712
2023-05-23T04:26:46.598Z,88.5273
2023-05-23T04:27:54.418Z,87.8302
2023-05-23T04:29:02.581Z,87.8749
2023-05-23T04:30:10.517Z,87.5035
2023-05-23T04:31:18.683Z,87.0046
2023-05-23T04:32:26.554Z,87.0579
2023-05-23T04:33:35.140Z,86.8821
2023-05-23T04:34:42.762Z,86.4414
2023-05-23T04:35:50.965Z,87.1711
2023-05-23T04:36:58.971Z,86.8431
2023-05-23T04:38:06.960Z,87.1588
2023-05-23T04:39:14.938Z,85.5858
2023-05-23T04:40:23.114Z,85.4843
2023-05-23T04:41:31.287Z,85.9595
2023-05-23T04:42:39.228Z,86.5679
2023-05-23T04:43:47.286Z,86.3240
2023-05-23T04:44:55.216Z,87.4009
2023-05-23T04:46:03.414Z,87.4459
2023-05-23T04:47:11.563Z,87.4080
2023-05-23T04:48:19.717Z,87.1299
2023-05-23T04:49:27.578Z,87.1580
2023-05-23T04:50:35.496Z,87.0452
2023-05-23T04:51:43.836Z,84.9259
2023-05-23T04:52:51.761Z,85.6465
2023-05-23T04:53:59.792Z,85.5626
2023-05-23T04:55:07.908Z,85.2076
2023-05-23T04:56:15.827Z,85.0134
2023-05-23T04:57:23.996Z,84.9922
2023-05-23T04:58:31.918Z,83.7658
2023-05-23T04:59:40.151Z,84.7016
2023-05-23T05:00:48.224Z,85.4520
2023-05-23T05:01:56.297Z,86.0103
2023-05-23T05:03:04.313Z,85.6797
2023-05-23T05:04:12.402Z,83.8475
2023-05-23T05:05:20.408Z,83.9922
2023-05-23T05:06:28.557Z,85.0656
2023-05-23T05:07:36.634Z,84.9500
2023-05-23T05:08:44.583Z,85.0635
2023-05-23T05:09:52.709Z,84.6880
2023-05-23T05:11:00.612Z,85.8447
2023-05-23T05:12:08.830Z,86.3631
2023-05-23T05:13:16.882Z,84.0812
2023-05-23T05:14:24.874Z,85.1132
2023-05-23T05:15:32.929Z,84.5160
2023-05-23T05:16:40.912Z,83.5070
2023-05-23T05:17:49.960Z,83.6312
2023-05-23T05:18:57.009Z,83.8119
2023-05-23T05:20:05.197Z,84.0848
2023-05-23T05:21:13.365Z,84.3075
2023-05-23T05:22:21.300Z,83.3791
2023-05-23T05:23:29.421Z,83.9077
2023-05-23T05:24:37.259Z,84.1975
2023-05-23T05:25:45.436Z,83.1699
2023-05-23T05:26:53.500Z,83.8916
2023-05-23T05:28:01.478Z,83.8168
2023-05-23T05:29:09.968Z,83.7948
2023-05-23T05:30:17.551Z,83.1921
2023-05-23T05:31:25.816Z,82.3684
2023-05-23T05:32:33.890Z,83.3100
2023-05-23T05:33:41.842Z,83.1284
2023-05-23T05:34:49.980Z,83.3906
2023-05-23T05:35:57.946Z,83.8035
2023-05-23T05:37:06.045Z,84.6665
2023-05-23T05:38:14.534Z,83.6084
2023-05-23T05:39:22.357Z,83.2292
2023-05-23T05:40:30.188Z,82.7488
2023-05-23T05:41:38.279Z,81.8154
2023-05-23T05:42:46.381Z,81.9393
2023-05-23T05:43:54.384Z,80.9119
2023-05-23T05:45:02.318Z,81.9089
2023-05-23T05:46:10.535Z,82.0958
2023-05-23T05:47:18.722Z,83.1367
2023-05-23T05:48:26.722Z,83.2329
2023-05-23T05:49:34.679Z,83.1462
2023-05-23T05:50:42.727Z,83.8458
2023-05-23T05:51:50.827Z,84.1256
2023-05-23T05:52:58.887Z,83.1662
2023-05-23T05:54:06.918Z,84.0840
2023-05-23T05:55:15.016Z,84.2444
2023-05-23T05:56:23.145Z,83.5819
2023-05-23T05:57:31.304Z,84.0182
2023-05-23T05:58:39.146Z,82.6046
2023-05-23T05:59:47.049Z,83.4812
2023-05-23T06:00:55.236Z,83.9635
2023-05-23T06:02:03.172Z,83.8890
2023-05-23T06:03:11.513Z,83.6870
2023-05-23T06:04:19.476Z,84.0400
2023-05-23T06:05:27.481Z,83.3459
2023-05-23T06:06:35.732Z,82.0842
2023-05-23T06:07:43.572Z,84.3869
2023-05-23T06:08:51.637Z,85.3261
2023-05-23T06:09:59.808Z,83.0929
2023-05-23T06:11:07.870Z,82.1583
2023-05-23T06:12:15.791Z,82.5502
2023-05-23T06:13:23.941Z,82.2108
2023-05-23T06:14:32.010Z,83.6004
2023-05-23T06:15:39.983Z,84.2883
2023-05-23T06:16:48.131Z,80.7565
2023-05-23T06:17:56.259Z,80.4414
2023-05-23T06:19:04.248Z,79.7635
2023-05-23T06:20:12.248Z,79.4873
2023-05-23T06:21:20.297Z,80.0330
2023-05-23T06:22:28.169Z,80.4645
2023-05-23T06:23:36.449Z,81.1210
2023-05-23T06:24:44.460Z,79.5955
2023-05-23T06:25:52.628Z,79.5251
2023-05-23T06:27:00.628Z,81.0482
2023-05-23T06:28:08.631Z,81.6307
2023-05-23T06:29:16.725Z,80.0221
2023-05-23T06:30:24.761Z,81.6381
2023-05-23T06:31:32.818Z,81.4049
2023-05-23T06:32:40.953Z,83.0792
2023-05-23T06:33:48.828Z,79.7333
2023-05-23T06:34:57.026Z,79.5749
2023-05-23T06:36:05.048Z,79.2378
2023-05-23T06:37:13.103Z,80.9006
2023-05-23T06:38:21.189Z,80.1640
2023-05-23T06:39:29.278Z,79.5614
2023-05-23T06:40:37.266Z,79.6704
2023-05-23T06:41:45.351Z,81.3092
2023-05-23T06:42:53.428Z,78.0240
2023-05-23T06:44:01.467Z,78.6841
2023-05-23T06:45:09.534Z,78.3379
2023-05-23T06:46:17.490Z,80.4665
2023-05-23T06:47:25.867Z,78.8449
2023-05-23T06:48:33.571Z,78.6370
2023-05-23T06:49:41.873Z,77.3710
2023-05-23T06:50:49.823Z,79.8618
2023-05-23T06:51:57.913Z,78.6020
2023-05-23T06:53:06.047Z,78.0060
2023-05-23T06:54:13.892Z,81.1656
2023-05-23T06:55:22.086Z,78.0531
2023-05-23T06:56:30.133Z,78.7792
2023-05-23T06:57:38.170Z,80.1875
2023-05-23T06:58:47.249Z,78.3087
2023-05-23T06:59:54.201Z,80.4945
2023-05-23T07:01:02.397Z,79.7230
2023-05-23T07:02:10.435Z,80.1725
2023-05-23T07:03:18.522Z,82.8320
2023-05-23T07:04:26.560Z,82.6612
2023-05-23T07:05:34.708Z,81.7206
2023-05-23T07:06:42.847Z,82.1608
2023-05-23T07:07:50.740Z,83.4258
2023-05-23T07:08:58.761Z,81.6132
2023-05-23T07:10:06.876Z,81.4377
2023-05-23T07:11:15.018Z,79.4218
2023-05-23T07:12:23.000Z,79.2269
2023-05-23T07:13:31.075Z,79.5973
2023-05-23T07:14:39.248Z,81.8727
2023-05-23T07:15:47.329Z,79.7420
2023-05-23T07:16:55.310Z,77.6241
2023-05-23T07:18:03.289Z,79.6346
2023-05-23T07:19:11.401Z,81.6154
2023-05-23T07:20:19.401Z,79.8523
2023-05-23T07:21:27.512Z,78.4689
2023-05-23T07:22:35.381Z,78.1049
2023-05-23T07:23:43.456Z,78.5440
2023-05-23T07:24:51.629Z,77.7009
2023-05-23T07:26:02.963Z,81.9897
2023-05-23T07:27:12.631Z,81.4549
2023-05-23T07:28:20.675Z,77.1983
2023-05-23T07:29:28.767Z,78.5282
2023-05-23T07:30:36.873Z,80.0033
2023-05-23T07:31:44.949Z,79.1045
2023-05-23T07:32:53.077Z,76.4792
2023-05-23T07:34:01.018Z,76.0268
2023-05-23T07:35:09.041Z,77.3065
2023-05-23T07:36:17.141Z,75.6509
2023-05-23T07:37:25.202Z,75.5914
2023-05-23T07:38:33.101Z,74.8376
2023-05-23T07:39:41.440Z,77.0852
2023-05-23T07:40:58.844Z,74.6450
2023-05-23T07:42:02.470Z,77.3880
2023-05-23T07:43:10.335Z,75.4161
2023-05-23T07:44:18.388Z,78.0801
2023-05-23T07:45:26.429Z,78.1202
2023-05-23T07:46:34.389Z,77.1900
2023-05-23T07:47:42.828Z,78.8888
2023-05-23T07:48:50.635Z,79.6394
2023-05-23T07:49:58.646Z,79.8216
2023-05-23T07:51:06.816Z,79.5455
2023-05-23T07:52:14.919Z,80.6028
2023-05-23T07:53:22.930Z,79.7692
2023-05-23T07:54:30.938Z,80.0085
2023-05-23T07:55:38.989Z,80.6637
2023-05-23T07:56:47.175Z,76.7695
2023-05-23T07:57:55.103Z,78.8188
2023-05-23T07:59:03.185Z,77.5843
2023-05-23T08:00:11.306Z,78.2475
2023-05-23T08:01:19.325Z,77.7064
2023-05-23T08:02:27.420Z,79.4708
2023-05-23T08:03:35.374Z,79.0070
2023-05-23T08:04:43.492Z,81.4389
2023-05-23T08:05:51.542Z,81.2458
2023-05-23T08:07:05.485Z,80.2953
2023-05-23T08:08:12.546Z,82.6843
2023-05-23T08:09:20.754Z,81.2374
2023-05-23T08:10:28.479Z,79.7972
2023-05-23T08:11:36.798Z,79.5655
2023-05-23T08:12:44.713Z,79.8094
2023-05-23T08:13:52.976Z,81.1575
2023-05-23T08:15:00.863Z,78.5134
2023-05-23T08:16:08.944Z,78.2402
2023-05-23T08:17:17.050Z,78.6250
2023-05-23T08:18:25.045Z,80.0527
2023-05-23T08:19:33.290Z,78.1695
2023-05-23T08:20:41.390Z,80.3579
2023-05-23T08:21:49.070Z,79.6779
2023-05-23T08:22:57.534Z,81.3620
2023-05-23T08:24:05.343Z,83.7345
2023-05-23T08:25:13.375Z,79.4047
2023-05-23T08:26:21.490Z,78.6446
2023-05-23T08:27:29.379Z,81.6320
2023-05-23T08:28:37.581Z,78.5306
2023-05-23T08:29:45.668Z,76.6493
2023-05-23T08:30:53.714Z,80.1929
2023-05-23T08:32:01.830Z,76.7299
2023-05-23T08:33:09.691Z,75.0977
2023-05-23T08:34:17.893Z,78.7084
2023-05-23T08:35:25.939Z,78.1940
2023-05-23T08:36:33.986Z,76.2443
2023-05-23T08:37:42.238Z,75.9985
2023-05-23T08:38:50.010Z,77.2606
2023-05-23T08:39:58.170Z,75.0039
2023-05-23T08:41:06.196Z,71.4097
2023-05-23T08:42:14.614Z,71.7285
2023-05-23T08:43:22.390Z,70.0070
2023-05-23T08:44:30.476Z,73.5842
2023-05-23T08:45:38.509Z,75.4483
2023-05-23T08:46:46.704Z,71.1993
2023-05-23T08:47:54.750Z,70.1225
2023-05-23T08:49:02.785Z,73.1113
2023-05-23T08:50:10.987Z,71.8445
2023-05-23T08:51:18.907Z,69.6708
2023-05-23T08:52:27.009Z,70.3034
2023-05-23T08:53:34.824Z,70.6337
2023-05-23T08:54:43.040Z,69.7749
2023-05-23T08:55:51.113Z,68.4287
2023-05-23T08:56:59.008Z,67.2458
2023-05-23T08:58:07.215Z,70.6938
2023-05-23T08:59:15.140Z,68.7530
2023-05-23T09:00:23.435Z,68.5289
2023-05-23T09:01:31.642Z,67.3588
2023-05-23T09:02:39.494Z,67.1665
2023-05-23T09:03:47.486Z,66.2918
2023-05-23T09:04:55.431Z,66.7404
2023-05-23T09:06:03.733Z,68.9501
2023-05-23T09:07:11.929Z,72.3959
2023-05-23T09:08:19.752Z,68.1415
2023-05-23T09:09:27.794Z,69.1319
2023-05-23T09:10:35.924Z,65.2036
2023-05-23T09:11:43.936Z,69.0347
2023-05-23T09:12:51.975Z,68.1275
2023-05-23T09:13:59.934Z,64.1764
2023-05-23T09:15:08.107Z,66.4344
2023-05-23T09:16:16.052Z,70.8966
2023-05-23T09:17:24.383Z,68.3930
2023-05-23T09:18:32.332Z,68.2964
2023-05-23T09:19:40.413Z,69.2107
2023-05-23T09:20:48.429Z,67.9725
2023-05-23T09:21:56.487Z,70.1898
2023-05-23T09:23:04.552Z,68.0450
2023-05-23T09:24:12.847Z,69.6127
2023-05-23T09:25:20.507Z,65.1709
2023-05-23T09:26:28.750Z,69.9637
2023-05-23T09:27:36.770Z,61.3727
2023-05-23T09:28:44.756Z,62.6883
2023-05-23T09:29:52.902Z,58.7796
2023-05-23T09:31:01.068Z,62.4251
2023-05-23T09:32:09.300Z,66.8860
2023-05-23T09:33:17.183Z,68.4813
2023-05-23T09:34:25.142Z,67.8885
2023-05-23T09:35:33.177Z,69.3820
2023-05-23T09:36:41.157Z,66.5077
2023-05-23T09:37:49.333Z,66.5218
2023-05-23T09:38:57.415Z,65.8737
2023-05-23T09:40:05.564Z,70.3549
2023-05-23T09:41:13.496Z,64.9108
2023-05-23T09:42:21.437Z,62.2075
2023-05-23T09:43:29.747Z,62.3924
2023-05-23T09:44:37.698Z,60.0842
2023-05-23T09:45:45.796Z,60.1614
2023-05-23T09:46:53.963Z,61.6671
2023-05-23T09:48:01.895Z,65.9743
2023-05-23T09:49:10.088Z,65.4692
2023-05-23T09:50:18.048Z,64.8315
2023-05-23T09:51:26.046Z,59.1860
2023-05-23T09:52:34.076Z,63.7990
2023-05-23T09:53:42.273Z,63.6664
2023-05-23T09:54:50.096Z,58.1403
2023-05-23T09:55:58.259Z,59.6114
2023-05-23T09:57:07.181Z,63.5236
2023-05-23T09:58:14.427Z,56.0577
2023-05-23T09:59:22.517Z,53.6710
2023-05-23T10:00:30.391Z,54.7790
2023-05-23T10:01:38.812Z,52.8282
2023-05-23T10:02:46.607Z,54.2478
2023-05-23T10:03:55.567Z,51.4778
2023-05-23T10:05:02.807Z,46.4032
2023-05-23T10:06:10.701Z,42.1337
2023-05-23T10:07:18.908Z,46.4443
2023-05-23T10:08:26.807Z,45.2712
2023-05-23T10:09:35.264Z,47.5259
2023-05-23T10:10:43.245Z,45.3515
2023-05-23T10:11:51.147Z,43.0174
2023-05-23T10:12:59.254Z,47.8593
2023-05-23T10:14:07.237Z,48.1132
2023-05-23T10:15:15.397Z,39.5621
2023-05-23T10:16:23.424Z,41.9004
2023-05-23T10:17:31.488Z,41.3618
2023-05-23T10:18:39.729Z,45.4750
2023-05-23T10:19:47.601Z,43.9160
2023-05-23T10:20:55.806Z,44.7334
2023-05-23T10:22:03.752Z,50.3423
2023-05-23T10:23:11.907Z,43.9862
2023-05-23T10:24:19.904Z,47.5484
2023-05-23T10:25:27.932Z,48.8120
2023-05-23T10:26:35.909Z,45.3928
2023-05-23T10:27:44.311Z,44.9188
2023-05-23T10:28:52.235Z,40.1131
2023-05-23T10:30:00.221Z,45.8423
2023-05-23T10:31:08.325Z,42.0327
2023-05-23T10:32:16.404Z,35.4205
2023-05-23T10:33:24.379Z,37.7126
2023-05-23T10:34:32.355Z,42.1016
2023-05-23T10:35:40.578Z,40.2435
2023-05-23T10:36:48.631Z,43.3454
2023-05-23T10:37:56.519Z,42.8626
2023-05-23T10:39:04.716Z,39.9908
2023-05-23T10:40:12.659Z,36.3458
2023-05-23T10:41:20.833Z,38.4238
2023-05-23T10:42:28.971Z,38.9950
2023-05-23T10:43:36.864Z,39.5985
2023-05-23T10:44:45.132Z,47.4296
2023-05-23T10:45:53.002Z,46.2985
2023-05-23T10:47:01.273Z,46.1492
2023-05-23T10:48:09.283Z,44.2444
2023-05-23T10:49:17.300Z,53.9089
2023-05-23T10:50:25.371Z,50.1165
2023-05-23T10:51:33.454Z,57.5902
2023-05-23T10:52:41.554Z,56.2316
2023-05-23T10:53:49.579Z,55.0124
2023-05-23T10:54:57.676Z,51.5584
2023-05-23T10:56:05.747Z,50.0620
2023-05-23T10:57:13.760Z,52.4995
2023-05-23T10:58:21.762Z,59.8851
2023-05-23T10:59:29.964Z,59.1969
2023-05-23T11:00:37.987Z,57.6069
2023-05-23T11:01:46.006Z,54.0571
2023-05-23T11:02:54.155Z,54.1905
2023-05-23T11:04:02.306Z,55.1594
2023-05-23T11:05:10.194Z,56.7041
2023-05-23T11:06:18.254Z,55.0970
2023-05-23T11:07:26.499Z,49.1393
2023-05-23T11:08:46.715Z,50.7173
2023-05-23T11:09:47.277Z,51.1698
2023-05-23T11:10:55.330Z,52.6497
2023-05-23T11:12:03.439Z,46.7520
2023-05-23T11:13:11.634Z,43.8605
2023-05-23T11:14:19.845Z,43.9809
2023-05-23T11:15:27.584Z,42.4595
2023-05-23T11:16:35.669Z,42.4248
2023-05-23T11:17:43.917Z,44.6226
2023-05-23T11:18:51.747Z,49.8204
2023-05-23T11:19:59.889Z,51.4611
2023-05-23T11:21:07.936Z,49.2663
2023-05-23T11:22:16.061Z,54.7489
2023-05-23T11:23:24.083Z,55.5778
2023-05-23T11:24:32.205Z,50.6816
2023-05-23T11:25:40.290Z,48.0174
2023-05-23T11:26:48.179Z,49.4666
2023-05-23T11:27:56.248Z,47.3043
2023-05-23T11:29:04.471Z,48.2574
2023-05-23T11:30:12.716Z,48.7785
2023-05-23T11:31:20.619Z,50.5348
2023-05-23T11:32:28.787Z,57.7360
2023-05-23T11:33:36.699Z,55.4756
2023-05-23T11:34:44.815Z,51.5785
2023-05-23T11:35:52.698Z,61.6859
2023-05-23T11:37:00.844Z,60.0120
2023-05-23T11:38:09.059Z,59.6297
2023-05-23T11:39:17.000Z,59.9123
2023-05-23T11:40:25.120Z,58.6436
2023-05-23T11:41:33.170Z,59.5971
2023-05-23T11:42:41.217Z,60.4545
2023-05-23T11:43:49.246Z,58.6647
2023-05-23T11:44:57.463Z,61.1098
2023-05-23T11:46:05.467Z,59.2528
2023-05-23T11:47:13.448Z,57.2563
2023-05-23T11:48:21.512Z,63.1268
2023-05-23T11:49:29.717Z,61.7154
2023-05-23T11:50:37.559Z,63.1033
2023-05-23T11:51:45.740Z,60.9567
2023-05-23T11:52:53.809Z,58.9188
2023-05-23T11:54:01.926Z,59.8804
2023-05-23T11:55:09.801Z,61.0712
2023-05-23T11:56:18.101Z,62.9396
2023-05-23T11:57:26.140Z,65.4892
2023-05-23T11:58:34.149Z,64.2295
2023-05-23T11:59:42.261Z,63.7449
2023-05-23T12:00:50.798Z,66.1292
2023-05-23T12:01:58.341Z,64.4308
2023-05-23T12:03:06.483Z,70.3344
2023-05-23T12:04:14.514Z,69.3545
2023-05-23T12:05:22.618Z,69.1573
2023-05-23T12:06:30.606Z,71.2444
2023-05-23T12:07:38.651Z,70.2333
2023-05-23T12:08:46.702Z,67.8428
2023-05-23T12:09:54.800Z,70.0216
2023-05-23T12:11:02.904Z,71.8848
2023-05-23T12:12:11.039Z,71.8895
2023-05-23T12:13:18.935Z,70.7928
2023-05-23T12:14:27.207Z,69.2535
2023-05-23T12:15:35.080Z,66.6412
2023-05-23T12:16:43.274Z,69.9283
2023-05-23T12:17:51.234Z,65.2749
2023-05-23T12:18:59.229Z,68.8136
2023-05-23T12:20:07.352Z,69.5283
2023-05-23T12:21:15.384Z,73.2334
2023-05-23T12:22:23.358Z,73.1918
2023-05-23T12:23:34.503Z,75.2880
2023-05-23T12:24:44.304Z,76.2877
2023-05-23T12:25:52.562Z,78.4549
2023-05-23T12:27:00.556Z,78.5107
2023-05-23T12:28:08.601Z,78.1955
2023-05-23T12:29:16.559Z,78.6290
2023-05-23T12:30:24.680Z,80.8048
2023-05-23T12:31:32.986Z,79.9656
2023-05-23T12:32:41.191Z,79.9103
2023-05-23T12:33:49.792Z,81.3429
2023-05-23T12:34:57.122Z,83.3021
2023-05-23T12:36:05.299Z,82.8489
2023-05-23T12:37:19.428Z,82.7163
2023-05-23T12:38:26.089Z,85.2885
2023-05-23T12:39:34.003Z,84.2793
2023-05-23T12:40:42.160Z,82.6820
2023-05-23T12:41:50.277Z,80.5992
2023-05-23T12:42:58.165Z,83.7380
2023-05-23T12:44:06.358Z,82.6852
2023-05-23T12:45:14.639Z,82.8935
2023-05-23T12:46:22.745Z,84.7592
2023-05-23T12:47:30.671Z,84.1140
2023-05-23T12:48:38.565Z,79.2788
2023-05-23T12:49:46.668Z,75.2685
2023-05-23T12:50:54.644Z,71.1749
2023-05-23T12:52:02.778Z,70.8201
2023-05-23T12:53:10.958Z,61.7475
2023-05-23T12:54:19.089Z,65.0783
2023-05-23T12:55:27.029Z,59.7966
2023-05-23T12:56:35.048Z,63.1814
2023-05-23T12:57:43.193Z,63.8229
2023-05-23T12:58:51.321Z,62.5573
2023-05-23T12:59:59.337Z,64.5879
2023-05-23T13:01:07.430Z,64.9555
2023-05-23T13:02:15.506Z,67.2307
2023-05-23T13:03:23.760Z,68.6247
2023-05-23T13:04:32.615Z,66.8482
2023-05-23T13:05:40.235Z,67.7436
2023-05-23T13:06:47.732Z,67.2964
2023-05-23T13:07:55.766Z,67.7630
2023-05-23T13:09:03.707Z,66.8288
2023-05-23T13:10:12.028Z,64.7695
2023-05-23T13:11:19.890Z,62.8712
2023-05-23T13:12:28.106Z,63.4478
2023-05-23T13:13:36.237Z,64.8433
2023-05-23T13:14:44.255Z,67.1633
2023-05-23T13:15:52.323Z,62.4181
2023-05-23T13:17:00.745Z,64.1326
2023-05-23T13:18:08.443Z,64.4532
2023-05-23T13:19:16.482Z,69.3639
2023-05-23T13:20:24.594Z,67.6522
2023-05-23T13:21:32.589Z,70.0849
2023-05-23T13:22:40.508Z,71.2244
2023-05-23T13:23:48.845Z,68.6231
2023-05-23T13:24:56.811Z,71.3133
2023-05-23T13:26:04.875Z,70.0906
2023-05-23T13:27:12.999Z,75.6237
2023-05-23T13:28:20.961Z,69.9255
2023-05-23T13:29:29.014Z,70.5426
2023-05-23T13:30:36.966Z,68.0293
2023-05-23T13:31:45.324Z,67.9738
2023-05-23T13:32:53.300Z,67.0311
2023-05-23T13:34:01.333Z,68.3411
2023-05-23T13:35:09.345Z,66.4551
2023-05-23T13:36:17.408Z,71.2637
2023-05-23T13:37:25.505Z,71.5427
2023-05-23T13:38:33.676Z,70.8639
2023-05-23T13:39:41.729Z,70.8973
2023-05-23T13:40:51.362Z,74.3959
2023-05-23T13:41:57.767Z,71.8324
2023-05-23T13:43:05.772Z,73.2789